Brentwood, New Hampshire
Current Conditions -  °F | °C
As of 5:58 PM on Tuesday 27 Jan 2015 (Local Time) from KPSM Reporting Station
Light Snow Light Snow  
Wind Chill: -1°   Ceiling: 1100
Heat Index: 17°   Visibility: 0.88mi
Dew Point: 13°   Wind: 25mph
Humidity: 83%   Direction: 350°N
Pressure: 29.55"   Gusts: 35mph
Location:  42.9832°N, 70.9915°W
Report Text: KPSM 272258Z 35022G30KT 7/8SM R34/P6000FT -SN BLSN SCT002 OVC011 M08/M11 A2955 RMK AO2A PK WND 33031/43 SLP012 P0002 T10821106
Loading
Personal Weather Stations






























Interactive Weather Map New forecast layout! Learn more

10-Day Weather Forecast

Advertisements
Track Severe Weather on mobile